Terminal Aerodrome Forecast
Issued by NWS

Home | Current Version | Previous Version | Text Only | Print | Product List | Glossary On
Versions: 1 2 3 4 5 6 7 8 9 10 11 12 13 14 15 16 17 18 19 20
979
FTUS41 KGYX 241125
TAFLEB
TAF
KLEB 241125Z 2412/2512 VRB03KT P6SM OVC080
     FM241400 VRB03KT 5SM SHRA BR BKN040
     FM250300 00000KT 3SM BR OVC009=

USA.gov is the U.S. government's official web portal to all federal, state and local government web resources and services.